Time;durP1;ratioP1;P1;durP2;ratioP2;P2;SDS_P1;SDS_P2;PMS_P1;PMS_P2;Temp;Humidity;BMP_temperature;BMP_pressure;BME280_temperature;BME280_humidity;BME280_pressure;Samples;Min_cycle;Max_cycle;Signal;HPM_P1;HPM_P2
2023/07/29 00:02:56;;;;;;;1.87;1.13;;;;;;;20.15;64.31;96286.25;10538503;28;20028;-27
2023/07/29 00:07:56;;;;;;;2.35;1.00;;;;;;;20.07;64.74;96283.84;10542040;28;20437;-28
2023/07/29 00:12:57;;;;;;;3.13;1.30;;;;;;;20.03;63.94;96263.53;10528280;28;20431;-28
2023/07/29 00:17:57;;;;;;;1.83;1.10;;;;;;;20.00;63.81;96258.50;10528109;28;20513;-28
2023/07/29 00:22:58;;;;;;;1.40;1.10;;;;;;;19.98;63.48;96250.88;10536074;28;20032;-29
2023/07/29 00:27:59;;;;;;;1.63;1.17;;;;;;;19.96;63.18;96256.84;10525464;28;20051;-28
2023/07/29 00:32:59;;;;;;;1.57;0.90;;;;;;;19.87;62.91;96250.19;10538728;28;20028;-27
2023/07/29 00:38:00;;;;;;;1.60;1.10;;;;;;;19.98;63.49;96252.56;10516950;28;20286;-29
2023/07/29 00:43:00;;;;;;;1.65;1.27;;;;;;;20.16;66.63;96257.44;10528323;28;20028;-29
2023/07/29 00:48:03;;;;;;;3.33;1.27;;;;;;;20.19;66.18;96248.06;10517963;28;20493;-29
2023/07/29 00:53:03;;;;;;;1.55;1.20;;;;;;;20.15;64.08;96236.28;10517310;28;20121;-28
2023/07/29 00:58:04;;;;;;;1.57;1.03;;;;;;;20.08;64.29;96233.88;10507144;28;20036;-28
2023/07/29 01:03:08;;;;;;;1.65;0.82;;;;;;;20.03;63.81;96235.59;10534851;28;20297;-29
2023/07/29 01:08:26;;;;;;;1.15;0.95;;;;;;;20.00;63.29;96230.56;10534808;28;20043;-29
2023/07/29 01:13:46;;;;;;;1.85;1.13;;;;;;;19.98;63.26;96232.25;10528164;28;20028;-28
2023/07/29 01:18:48;;;;;;;1.80;1.00;;;;;;;19.94;62.96;96221.28;10528884;28;20028;-29
2023/07/29 01:23:52;;;;;;;1.30;1.00;;;;;;;19.96;62.90;96218.72;10503067;28;20032;-29
2023/07/29 01:28:53;;;;;;;1.40;1.15;;;;;;;20.00;64.02;96220.38;10512417;28;20062;-29
2023/07/29 01:34:01;;;;;;;1.95;1.30;;;;;;;20.15;66.05;96210.00;10526362;28;20020;-28
2023/07/29 01:39:03;;;;;;;1.65;1.15;;;;;;;20.19;66.15;96212.50;10507699;28;20453;-28
2023/07/29 01:44:05;;;;;;;4.40;1.00;;;;;;;20.14;64.32;96213.41;10531873;28;20024;-29
2023/07/29 01:49:05;;;;;;;1.00;0.82;;;;;;;20.07;64.06;96214.38;10507082;28;20028;-29
2023/07/29 01:54:06;;;;;;;1.07;0.80;;;;;;;20.02;63.59;96209.31;10515198;28;20492;-28
2023/07/29 01:59:06;;;;;;;1.33;0.80;;;;;;;20.00;63.46;96217.84;10533155;28;20290;-28
2023/07/29 02:04:06;;;;;;;1.57;1.00;;;;;;;19.99;63.27;96223.75;10528590;28;20387;-28
2023/07/29 02:09:07;;;;;;;0.73;0.67;;;;;;;19.97;62.83;96218.72;10507920;28;20031;-29
2023/07/29 02:14:08;;;;;;;1.60;1.00;;;;;;;19.96;63.02;96213.66;10525136;28;20298;-28
2023/07/29 02:19:08;;;;;;;1.35;1.08;;;;;;;19.97;63.20;96208.56;10516227;28;20032;-29
2023/07/29 02:24:08;;;;;;;1.50;0.90;;;;;;;20.13;66.16;96212.59;10532574;28;20051;-29
2023/07/29 02:29:09;;;;;;;1.63;1.13;;;;;;;20.19;65.10;96216.75;10518749;28;20090;-28
2023/07/29 02:34:09;;;;;;;1.40;1.00;;;;;;;20.15;63.69;96220.19;10531471;28;20059;-28
2023/07/29 02:39:10;;;;;;;1.08;0.60;;;;;;;20.08;64.18;96218.63;10513292;28;20409;-28
2023/07/29 02:44:10;;;;;;;2.60;1.08;;;;;;;20.03;63.57;96225.41;10514374;28;20036;-29
2023/07/29 02:49:11;;;;;;;0.68;0.65;;;;;;;20.00;63.15;96211.03;10522434;28;20040;-29
2023/07/29 02:54:11;;;;;;;1.13;0.90;;;;;;;20.00;63.05;96207.69;10506864;28;20028;-28
2023/07/29 02:59:12;;;;;;;0.60;0.57;;;;;;;19.93;62.93;96201.81;10505390;28;20335;-28
2023/07/29 03:04:13;;;;;;;1.10;0.90;;;;;;;19.95;62.49;96204.34;10507438;28;20031;-29
2023/07/29 03:09:13;;;;;;;2.78;1.20;;;;;;;19.97;63.29;96195.00;10513324;28;20035;-28
2023/07/29 03:14:14;;;;;;;1.27;1.02;;;;;;;20.14;65.57;96199.03;10530448;28;20047;-28
2023/07/29 03:19:15;;;;;;;2.63;0.90;;;;;;;20.19;65.68;96199.78;10508152;28;20036;-28
2023/07/29 03:24:15;;;;;;;1.30;0.70;;;;;;;20.15;64.26;96184.59;10513509;28;20286;-29
2023/07/29 03:29:15;;;;;;;1.77;0.80;;;;;;;20.07;64.33;96176.25;10529308;28;20028;-29
2023/07/29 03:34:16;;;;;;;1.10;0.80;;;;;;;20.03;63.66;96179.69;10505096;28;20278;-27
2023/07/29 03:39:22;;;;;;;0.60;0.60;;;;;;;20.01;63.38;96176.31;10512347;28;20127;-29
2023/07/29 03:44:25;;;;;;;1.20;0.80;;;;;;;19.95;63.06;96156.09;10514117;28;20028;-28
2023/07/29 03:49:26;;;;;;;1.58;0.90;;;;;;;19.98;63.04;96173.81;10532457;28;20024;-28
2023/07/29 03:54:26;;;;;;;2.00;0.90;;;;;;;19.98;62.74;96174.66;10511650;28;20031;-28
2023/07/29 03:59:26;;;;;;;1.00;0.60;;;;;;;19.99;62.76;96167.84;10520179;28;20315;-28
2023/07/29 04:04:27;;;;;;;2.50;1.10;;;;;;;20.14;65.59;96176.16;10519463;28;20032;-28
2023/07/29 04:09:28;;;;;;;1.30;1.17;;;;;;;20.19;65.79;96176.09;10514737;28;20426;-28
2023/07/29 04:14:28;;;;;;;1.95;0.93;;;;;;;20.15;63.87;96169.34;10518694;28;20036;-29
2023/07/29 04:19:28;;;;;;;0.87;0.80;;;;;;;20.09;64.19;96165.19;10522513;28;20036;-28
2023/07/29 04:24:29;;;;;;;1.73;0.80;;;;;;;20.07;63.39;96171.16;10537310;28;20047;-28
2023/07/29 04:29:29;;;;;;;1.07;0.87;;;;;;;20.05;63.36;96185.59;10536187;28;20294;-29
2023/07/29 04:34:30;;;;;;;0.90;0.68;;;;;;;20.00;63.03;96187.34;10511880;28;20298;-28
2023/07/29 04:39:30;;;;;;;2.40;0.95;;;;;;;20.06;64.61;96189.81;10532164;28;20028;-28
2023/07/29 04:44:31;;;;;;;0.93;0.83;;;;;;;20.02;67.86;96203.41;10536246;28;20024;-29
2023/07/29 04:49:31;;;;;;;1.03;0.80;;;;;;;19.99;69.91;96194.13;10517447;28;20290;-28
2023/07/29 04:54:32;;;;;;;3.33;0.80;;;;;;;20.07;71.20;96196.56;10535837;28;20478;-29
2023/07/29 04:59:32;;;;;;;1.00;0.90;;;;;;;20.10;71.77;96214.34;10534624;28;20493;-28
2023/07/29 05:04:32;;;;;;;2.78;1.30;;;;;;;20.09;72.59;96202.50;10525069;28;20274;-28
2023/07/29 05:09:33;;;;;;;2.03;1.20;;;;;;;20.08;73.07;96213.53;10528590;28;20020;-28
2023/07/29 05:14:33;;;;;;;1.65;1.00;;;;;;;20.02;70.83;96199.16;10533279;28;20771;-29
2023/07/29 05:19:34;;;;;;;5.85;1.45;;;;;;;20.06;73.20;96208.47;10515481;28;20543;-28
2023/07/29 05:24:37;;;;;;;1.47;1.10;;;;;;;19.99;74.63;96213.59;10508027;28;20036;-28
2023/07/29 05:29:37;;;;;;;4.72;1.45;;;;;;;19.96;74.21;96208.56;10523437;28;20028;-29
2023/07/29 05:34:38;;;;;;;2.00;1.20;;;;;;;19.98;74.67;96204.31;10500666;28;20027;-29
2023/07/29 05:39:38;;;;;;;3.43;1.17;;;;;;;20.00;73.65;96226.28;10524183;28;20397;-29
2023/07/29 05:44:38;;;;;;;1.40;1.30;;;;;;;20.08;74.86;96228.78;10533332;28;20027;-28
2023/07/29 05:49:39;;;;;;;5.82;1.60;;;;;;;20.11;75.85;96218.56;10506972;28;20398;-28
2023/07/29 05:54:42;;;;;;;8.82;2.25;;;;;;;20.11;75.90;96223.63;10508960;28;20036;-29
2023/07/29 05:59:42;;;;;;;5.75;1.40;;;;;;;20.03;75.21;96230.50;10515601;28;20088;-29
2023/07/29 06:04:43;;;;;;;6.10;2.00;;;;;;;20.08;76.36;96238.94;10520297;28;20141;-29
2023/07/29 06:09:43;;;;;;;3.92;1.42;;;;;;;20.06;72.27;96236.41;10532141;28;20039;-30
2023/07/29 06:14:44;;;;;;;2.53;1.33;;;;;;;20.10;75.91;96238.03;10513690;28;20072;-28
2023/07/29 06:19:44;;;;;;;2.60;1.80;;;;;;;20.10;72.54;96239.75;10524301;28;20024;-29
2023/07/29 06:24:44;;;;;;;3.60;1.30;;;;;;;20.08;69.14;96233.88;10508523;28;20085;-28
2023/07/29 06:29:45;;;;;;;2.70;1.37;;;;;;;20.06;68.28;96233.03;10524729;28;20032;-29
2023/07/29 06:34:45;;;;;;;3.83;1.20;;;;;;;20.08;70.10;96213.53;10531213;28;20034;-29
2023/07/29 06:39:46;;;;;;;1.90;1.20;;;;;;;20.19;72.89;96204.03;10530729;28;20036;-28
2023/07/29 06:44:46;;;;;;;3.57;1.33;;;;;;;20.27;72.31;96204.75;10526568;28;20040;-29
2023/07/29 06:49:47;;;;;;;5.23;1.33;;;;;;;20.19;69.73;96237.09;10528733;28;20278;-29
2023/07/29 06:54:47;;;;;;;1.83;1.40;;;;;;;20.27;75.43;96261.50;10522921;28;20110;-29
2023/07/29 06:59:48;;;;;;;2.30;1.30;;;;;;;20.17;72.25;96270.13;10525813;28;20043;-30
2023/07/29 07:04:48;;;;;;;3.57;1.33;;;;;;;20.23;75.58;96253.97;10520741;28;20278;-28
2023/07/29 07:09:48;;;;;;;1.80;1.33;;;;;;;20.29;74.47;96272.53;10519293;28;20314;-29
2023/07/29 07:14:49;;;;;;;1.10;1.00;;;;;;;20.29;74.69;96269.13;10528476;28;20290;-27
2023/07/29 07:19:49;;;;;;;1.40;1.30;;;;;;;20.18;71.78;96269.28;10526387;28;20294;-29
2023/07/29 07:24:50;;;;;;;1.20;1.00;;;;;;;20.19;73.40;96254.88;10537786;28;20089;-28
2023/07/29 07:29:50;;;;;;;1.60;1.40;;;;;;;20.30;74.30;96260.63;10531832;28;20451;-28
2023/07/29 07:34:51;;;;;;;2.65;1.10;;;;;;;20.27;73.68;96256.44;10522360;28;20379;-29
2023/07/29 07:39:51;;;;;;;3.00;1.47;;;;;;;20.30;74.53;96266.56;10518004;28;20032;-29
2023/07/29 07:44:51;;;;;;;2.90;1.70;;;;;;;20.26;74.57;96257.28;10525020;28;20042;-29
2023/07/29 07:49:52;;;;;;;3.03;1.40;;;;;;;20.23;73.09;96256.50;10517470;28;20288;-28
2023/07/29 07:54:53;;;;;;;1.80;1.30;;;;;;;20.24;73.30;96250.53;10522989;28;20138;-28
2023/07/29 07:59:53;;;;;;;5.82;1.83;;;;;;;20.21;71.67;96256.53;10519893;28;20060;-28
2023/07/29 08:04:54;;;;;;;2.10;1.57;;;;;;;20.27;73.53;96265.78;10512789;28;20124;-28
2023/07/29 08:09:54;;;;;;;1.93;1.67;;;;;;;20.28;73.11;96252.19;10515636;28;20278;-29
2023/07/29 08:14:54;;;;;;;6.20;2.17;;;;;;;20.37;73.26;96262.22;10513521;28;20060;-28
2023/07/29 08:19:55;;;;;;;2.30;1.80;;;;;;;20.39;73.90;96257.09;10528421;28;20102;-28
2023/07/29 08:24:55;;;;;;;3.07;2.03;;;;;;;20.54;72.44;96261.94;10519931;28;20055;-30
2023/07/29 08:29:55;;;;;;;2.23;1.80;;;;;;;20.47;73.99;96264.63;10526188;28;20024;-29
2023/07/29 08:34:56;;;;;;;2.43;1.60;;;;;;;20.35;72.22;96259.69;10523177;28;20429;-29
2023/07/29 08:39:56;;;;;;;6.13;1.87;;;;;;;20.29;72.06;96262.34;10532043;28;20039;-29
2023/07/29 08:45:06;;;;;;;4.60;1.90;;;;;;;20.38;74.62;96274.09;10535822;28;20093;-29
2023/07/29 08:50:07;;;;;;;4.18;2.13;;;;;;;20.37;73.91;96267.31;10523843;28;20748;-29
2023/07/29 08:55:07;;;;;;;3.05;2.00;;;;;;;20.38;73.00;96274.09;10532734;28;20077;-28
2023/07/29 09:00:09;;;;;;;2.30;1.90;;;;;;;20.28;71.14;96273.34;10524545;28;20101;-29
2023/07/29 09:05:09;;;;;;;2.40;1.90;;;;;;;20.24;71.79;96281.06;10517031;28;20112;-28
2023/07/29 09:10:12;;;;;;;2.73;1.80;;;;;;;20.29;72.94;96275.06;10520573;28;20071;-29
2023/07/29 09:15:25;;;;;;;2.20;2.00;;;;;;;20.39;72.29;96287.59;10534633;28;20169;-28
2023/07/29 09:20:29;;;;;;;2.90;1.63;;;;;;;20.38;70.88;96280.84;10531805;28;20124;-30
2023/07/29 09:25:29;;;;;;;3.25;1.52;;;;;;;20.28;70.23;96278.44;10528974;28;20039;-29
2023/07/29 09:30:30;;;;;;;2.88;1.73;;;;;;;20.20;70.05;96259.09;10526577;28;20410;-28
2023/07/29 09:35:36;;;;;;;3.47;1.47;;;;;;;20.17;69.37;96262.50;10534653;28;20118;-29
2023/07/29 09:40:37;;;;;;;6.93;1.27;;;;;;;20.14;68.89;96259.16;10519385;28;20044;-28
2023/07/29 09:45:38;;;;;;;1.63;1.52;;;;;;;20.13;68.70;96268.50;10532749;28;20028;-28
2023/07/29 09:50:38;;;;;;;5.10;1.73;;;;;;;19.96;67.93;96239.06;10522033;28;20039;-28
2023/07/29 09:55:39;;;;;;;4.87;1.40;;;;;;;20.12;67.52;96265.97;10524706;28;20664;-29
2023/07/29 10:00:40;;;;;;;4.77;1.43;;;;;;;20.12;67.92;96278.69;10526790;28;20078;-28
2023/07/29 10:05:41;;;;;;;2.22;1.95;;;;;;;20.28;70.53;96273.34;10529278;28;20283;-29
2023/07/29 10:10:42;;;;;;;2.53;1.90;;;;;;;20.35;70.42;96281.75;10530570;28;20028;-28
2023/07/29 10:15:45;;;;;;;3.47;1.52;;;;;;;20.30;67.64;96288.59;10520370;28;20043;-28
2023/07/29 10:20:48;;;;;;;1.35;1.20;;;;;;;20.20;69.03;96280.28;10522191;28;20726;-29
2023/07/29 10:26:03;;;;;;;2.00;1.40;;;;;;;20.16;68.14;96280.31;10527570;28;20094;-29
2023/07/29 10:31:04;;;;;;;2.10;1.80;;;;;;;20.13;67.94;96272.75;10521477;28;20028;-29
2023/07/29 10:36:05;;;;;;;1.88;1.55;;;;;;;20.12;67.35;96273.59;10529819;28;20056;-27
2023/07/29 10:41:05;;;;;;;2.10;1.45;;;;;;;20.11;67.24;96266.84;10523327;28;20043;-29
2023/07/29 10:46:19;;;;;;;2.65;1.30;;;;;;;20.11;66.70;96269.38;10525196;28;20517;-29
2023/07/29 10:51:25;;;;;;;1.77;1.48;;;;;;;20.11;66.72;96259.22;10524745;28;20037;-29
2023/07/29 10:56:27;;;;;;;;;;;;;;;20.26;70.39;96266.66;10532638;28;20051;-28
2023/07/29 11:01:29;;;;;;;3.35;2.42;;;;;;;20.32;69.72;96269.94;10537735;28;19922;-28
2023/07/29 11:06:29;;;;;;;2.15;1.95;;;;;;;20.30;67.97;96260.63;10525333;28;20043;-28
2023/07/29 11:11:30;;;;;;;5.73;1.90;;;;;;;20.28;70.03;96267.44;10534169;28;20379;-29
2023/07/29 11:16:30;;;;;;;2.37;2.00;;;;;;;20.33;69.35;96258.06;10530579;28;20594;-28
2023/07/29 11:21:32;;;;;;;4.18;2.65;;;;;;;20.45;71.11;96251.94;10533911;28;20043;-26
2023/07/29 11:26:37;;;;;;;2.40;2.20;;;;;;;20.29;69.72;96253.88;10531581;28;20031;-29
2023/07/29 11:31:40;;;;;;;2.78;2.17;;;;;;;20.26;69.16;96249.66;10532207;28;20032;-27
2023/07/29 11:36:47;;;;;;;4.53;2.17;;;;;;;20.21;69.13;96250.59;10537046;28;20047;-28
2023/07/29 11:41:47;;;;;;;2.00;1.77;;;;;;;20.28;70.37;96249.66;10533006;28;20044;-28
2023/07/29 11:46:48;;;;;;;2.27;2.07;;;;;;;20.29;70.32;96248.78;10532903;28;20031;-29
2023/07/29 11:51:49;;;;;;;3.22;2.10;;;;;;;20.44;70.48;96255.34;10523767;28;20081;-29
2023/07/29 11:56:50;;;;;;;3.00;1.90;;;;;;;20.46;69.52;96253.59;10536705;28;20024;-29
2023/07/29 12:01:51;;;;;;;3.00;2.47;;;;;;;20.28;68.79;96242.84;10535780;28;20035;-29
2023/07/29 12:06:52;;;;;;;2.03;1.83;;;;;;;20.22;67.94;96237.88;10526817;28;20028;-30
2023/07/29 12:11:52;;;;;;;2.93;1.80;;;;;;;20.20;66.73;96238.75;10527832;28;20043;-31
2023/07/29 12:16:53;;;;;;;2.15;1.92;;;;;;;20.30;69.77;96243.69;10532915;28;20298;-30
2023/07/29 12:21:54;;;;;;;3.67;2.00;;;;;;;20.37;69.92;96231.72;10532645;28;20490;-29
2023/07/29 12:26:55;;;;;;;4.47;2.00;;;;;;;20.38;66.96;96244.44;10534321;28;20040;-29
2023/07/29 12:32:01;;;;;;;2.50;1.50;;;;;;;20.33;65.26;96230.09;10532258;28;20036;-29
2023/07/29 12:37:03;;;;;;;1.30;1.20;;;;;;;20.32;65.30;96238.56;10532109;28;20035;-29
2023/07/29 12:42:04;;;;;;;1.88;1.42;;;;;;;20.35;65.15;96251.25;10522579;28;20325;-29
2023/07/29 12:47:06;;;;;;;3.92;1.40;;;;;;;20.36;64.92;96260.56;10534984;28;20093;-29
2023/07/29 12:52:06;;;;;;;3.63;1.77;;;;;;;20.45;68.71;96251.09;10533694;28;20032;-29
2023/07/29 12:57:07;;;;;;;2.47;1.88;;;;;;;20.46;69.13;96253.59;10528986;28;20652;-30
2023/07/29 13:02:07;;;;;;;2.03;1.53;;;;;;;20.43;65.51;96258.75;10533410;28;20404;-29
2023/07/29 13:07:07;;;;;;;1.67;1.57;;;;;;;20.39;65.10;96249.47;10534179;28;20128;-29
2023/07/29 13:12:08;;;;;;;6.23;1.93;;;;;;;20.38;65.24;96273.22;10532883;28;20448;-29
2023/07/29 13:17:08;;;;;;;5.60;1.83;;;;;;;20.38;65.96;96260.50;10525137;28;20286;-30
2023/07/29 13:22:09;;;;;;;3.53;1.77;;;;;;;20.31;65.73;96267.41;10522824;28;20036;-30
2023/07/29 13:27:09;;;;;;;3.27;1.90;;;;;;;20.49;69.21;96283.25;10531366;28;20035;-29
2023/07/29 13:32:09;;;;;;;3.93;2.23;;;;;;;20.52;68.65;96278.94;10525137;28;20356;-29
2023/07/29 13:37:10;;;;;;;1.90;1.37;;;;;;;20.46;65.51;96276.50;10533893;28;20039;-29
2023/07/29 13:42:10;;;;;;;2.33;1.37;;;;;;;20.43;65.70;96268.91;10535573;28;20118;-30
2023/07/29 13:47:10;;;;;;;3.87;1.83;;;;;;;20.42;65.46;96285.03;10530463;28;20175;-30
2023/07/29 13:52:13;;;;;;;3.17;1.90;;;;;;;20.40;65.77;96279.09;10526504;28;20024;-29
2023/07/29 13:57:13;;;;;;;3.13;1.95;;;;;;;20.39;65.91;96282.53;10522168;28;20028;-29
2023/07/29 14:02:14;;;;;;;10.03;3.70;;;;;;;20.48;69.47;96277.28;10532617;28;20042;-30
2023/07/29 14:07:14;;;;;;;5.63;2.80;;;;;;;20.54;69.52;96292.47;10525089;28;20123;-29
2023/07/29 14:12:15;;;;;;;5.70;2.00;;;;;;;20.40;66.16;96266.41;10523706;28;20028;-29
2023/07/29 14:17:15;;;;;;;4.35;2.17;;;;;;;20.42;66.07;96279.94;10521124;28;20291;-28
2023/07/29 14:22:16;;;;;;;3.37;2.20;;;;;;;20.39;65.37;96287.59;10531157;28;20455;-30
2023/07/29 14:27:16;;;;;;;6.20;2.40;;;;;;;20.40;66.91;96307.09;10530653;28;20036;-30
2023/07/29 14:32:17;;;;;;;1.85;1.75;;;;;;;20.37;65.74;96323.25;10521974;28;20039;-30
2023/07/29 14:37:17;;;;;;;3.50;1.77;;;;;;;20.42;68.23;96323.19;10529004;28;20043;-30
2023/07/29 14:42:17;;;;;;;3.17;2.10;;;;;;;20.40;68.80;96304.53;10525534;28;20111;-30
2023/07/29 14:47:18;;;;;;;2.90;1.77;;;;;;;20.48;67.52;96317.97;10525735;28;20032;-32
2023/07/29 14:52:18;;;;;;;2.43;1.70;;;;;;;20.42;65.79;96316.41;10518169;28;20110;-29
2023/07/29 14:57:18;;;;;;;4.03;1.83;;;;;;;20.36;65.10;96319.03;10532321;28;20190;-29
2023/07/29 15:02:19;;;;;;;5.07;2.23;;;;;;;20.33;65.07;96321.63;10523386;28;20036;-30
2023/07/29 15:07:19;;;;;;;2.60;1.70;;;;;;;20.30;64.85;96316.56;10527953;28;20283;-30
2023/07/29 15:12:20;;;;;;;1.63;1.42;;;;;;;20.30;64.83;96316.56;10524095;28;20081;-29
2023/07/29 15:17:20;;;;;;;2.30;1.90;;;;;;;20.43;68.97;96303.66;10527273;28;20044;-29
2023/07/29 15:22:20;;;;;;;2.30;1.90;;;;;;;20.51;67.49;96312.03;10532077;28;20036;-30
2023/07/29 15:27:22;;;;;;;1.97;1.50;;;;;;;20.43;66.49;96299.44;10529137;28;20036;-29
2023/07/29 15:32:23;;;;;;;2.42;1.55;;;;;;;20.37;65.48;96305.47;10521405;28;20036;-30
2023/07/29 15:37:26;;;;;;;2.15;1.50;;;;;;;20.33;65.06;96306.38;10528756;28;20048;-30
2023/07/29 15:42:26;;;;;;;1.98;1.35;;;;;;;20.31;64.70;96303.00;10532937;28;20510;-30
2023/07/29 15:47:27;;;;;;;2.00;1.33;;;;;;;20.30;64.56;96286.06;10531213;28;20042;-29
2023/07/29 15:52:29;;;;;;;4.03;1.50;;;;;;;20.33;66.73;96281.78;10537849;28;20031;-29
2023/07/29 15:57:29;;;;;;;3.55;2.03;;;;;;;20.49;69.01;96283.25;10531411;28;20036;-30
2023/07/29 16:02:30;;;;;;;2.60;1.47;;;;;;;20.52;66.45;96276.41;10528373;28;20048;-29
2023/07/29 16:07:30;;;;;;;2.37;1.50;;;;;;;20.41;65.91;96285.06;10532641;28;20052;-30
2023/07/29 16:12:35;;;;;;;1.93;1.50;;;;;;;20.34;64.83;96282.63;10524549;28;20485;-30
2023/07/29 16:17:35;;;;;;;2.72;1.88;;;;;;;20.28;64.42;96270.81;10532428;28;20056;-29
2023/07/29 16:22:35;;;;;;;2.47;1.63;;;;;;;20.30;64.48;96270.81;10531943;28;20127;-29
2023/07/29 16:27:36;;;;;;;2.60;1.20;;;;;;;20.29;64.82;96272.53;10535219;28;20490;-29
2023/07/29 16:32:36;;;;;;;2.23;1.47;;;;;;;20.41;67.63;96274.88;10525215;28;20090;-30
2023/07/29 16:37:36;;;;;;;2.63;1.80;;;;;;;20.50;68.80;96275.59;10531499;28;20028;-29
2023/07/29 16:42:40;;;;;;;1.97;1.73;;;;;;;20.50;65.84;96283.22;10529974;28;20297;-30
2023/07/29 16:47:40;;;;;;;1.73;1.40;;;;;;;20.39;65.48;96274.88;10518416;28;20498;-30
2023/07/29 16:52:41;;;;;;;1.87;1.47;;;;;;;20.34;64.88;96286.00;10534930;28;20142;-29
2023/07/29 16:57:41;;;;;;;1.73;1.40;;;;;;;20.32;64.64;96294.50;10532908;28;20278;-30
2023/07/29 17:02:41;;;;;;;6.00;1.50;;;;;;;20.31;64.56;96297.91;10524713;28;20044;-30
2023/07/29 17:07:42;;;;;;;1.97;1.40;;;;;;;20.27;64.58;96291.19;10528098;28;20485;-30
2023/07/29 17:12:42;;;;;;;2.77;1.50;;;;;;;20.42;67.24;96300.28;10524708;28;20456;-29
2023/07/29 17:17:45;;;;;;;1.67;1.53;;;;;;;20.51;68.76;96302.69;10521962;28;20286;-29
2023/07/29 17:22:45;;;;;;;2.10;1.23;;;;;;;20.50;66.14;96306.13;10534229;28;20028;-30
2023/07/29 17:27:46;;;;;;;2.10;1.40;;;;;;;20.40;65.18;96298.63;10523772;28;20031;-31
2023/07/29 17:32:46;;;;;;;1.95;1.75;;;;;;;20.33;64.77;96291.13;10522632;28;20028;-29
2023/07/29 17:37:47;;;;;;;1.37;1.27;;;;;;;20.30;64.53;96302.16;10529180;28;20413;-29
2023/07/29 17:42:47;;;;;;;1.17;1.07;;;;;;;20.24;64.65;96297.16;10527167;28;20153;-30
2023/07/29 17:47:47;;;;;;;2.20;1.77;;;;;;;20.30;64.70;96301.31;10524897;28;20482;-30
2023/07/29 17:52:48;;;;;;;2.20;1.37;;;;;;;20.42;68.66;96302.84;10532279;28;20543;-29
2023/07/29 17:57:50;;;;;;;1.50;1.40;;;;;;;20.52;68.07;96309.47;10528538;28;20316;-29
2023/07/29 18:02:52;;;;;;;1.30;1.15;;;;;;;20.44;65.64;96285.84;10531380;28;20043;-30
2023/07/29 18:07:52;;;;;;;1.70;1.23;;;;;;;20.40;65.54;96294.38;10531863;28;20493;-29
2023/07/29 18:12:53;;;;;;;1.17;1.07;;;;;;;20.32;64.61;96295.34;10532017;28;20032;-30
2023/07/29 18:17:54;;;;;;;1.27;1.15;;;;;;;20.29;64.67;96300.50;10518837;28;20286;-29
2023/07/29 18:22:55;;;;;;;1.60;1.10;;;;;;;20.30;64.47;96303.84;10532225;28;20028;-29
2023/07/29 18:27:55;;;;;;;1.10;1.00;;;;;;;20.27;64.18;96296.28;10522239;28;20490;-30
2023/07/29 18:32:56;;;;;;;1.17;1.07;;;;;;;20.42;66.99;96296.06;10519762;28;20024;-29
2023/07/29 18:37:59;;;;;;;1.57;1.47;;;;;;;20.43;68.16;96273.16;10527166;28;20286;-30
2023/07/29 18:43:00;;;;;;;3.00;1.30;;;;;;;20.50;66.05;96285.78;10520131;28;20833;-30
2023/07/29 18:48:00;;;;;;;1.33;1.23;;;;;;;20.40;65.35;96294.38;10531229;28;20081;-29
2023/07/29 18:53:00;;;;;;;1.17;1.03;;;;;;;20.33;64.58;96286.03;10525610;28;20028;-29
2023/07/29 18:58:01;;;;;;;1.20;1.10;;;;;;;20.29;64.19;96295.41;10526984;28;20475;-29
2023/07/29 19:03:01;;;;;;;1.20;1.10;;;;;;;20.29;64.39;96300.50;10508859;28;20028;-29
2023/07/29 19:08:01;;;;;;;2.30;1.20;;;;;;;20.28;64.25;96295.41;10523522;28;20482;-29
2023/07/29 19:13:03;;;;;;;2.67;1.60;;;;;;;20.36;66.75;96296.97;10526959;28;20520;-29
2023/07/29 19:18:03;;;;;;;1.45;1.23;;;;;;;20.52;68.41;96301.84;10526018;28;20491;-30
2023/07/29 19:23:03;;;;;;;1.60;1.40;;;;;;;20.53;66.73;96305.19;10539235;28;20054;-30
2023/07/29 19:28:04;;;;;;;1.40;1.30;;;;;;;20.45;65.78;96301.97;10535749;28;20775;-29
2023/07/29 19:33:04;;;;;;;2.47;1.50;;;;;;;20.39;64.99;96300.31;10534592;28;20036;-29
2023/07/29 19:38:04;;;;;;;1.13;1.00;;;;;;;20.33;64.57;96303.84;10532735;28;20056;-29
2023/07/29 19:43:05;;;;;;;1.33;1.23;;;;;;;20.30;64.41;96297.09;10534722;28;20055;-29
2023/07/29 19:48:06;;;;;;;2.00;1.27;;;;;;;20.30;64.22;96298.78;10527142;28;20562;-29
2023/07/29 19:53:06;;;;;;;2.28;1.08;;;;;;;20.24;64.34;96276.81;10528566;28;20028;-29
2023/07/29 19:58:07;;;;;;;8.18;2.28;;;;;;;20.48;68.74;96296.81;10532263;28;20036;-29
2023/07/29 20:03:07;;;;;;;6.43;1.97;;;;;;;20.55;66.46;96303.50;10526034;28;20036;-29
2023/07/29 20:08:07;;;;;;;6.03;2.23;;;;;;;20.42;66.69;96313.00;10531424;28;20046;-29
2023/07/29 20:13:08;;;;;;;5.53;1.80;;;;;;;20.40;64.95;96304.53;10522618;28;20044;-29
2023/07/29 20:18:08;;;;;;;5.50;1.30;;;;;;;20.38;64.46;96314.75;10524987;28;20036;-29
2023/07/29 20:23:09;;;;;;;5.60;1.60;;;;;;;20.35;64.33;96330.88;10526219;28;20043;-29
2023/07/29 20:28:09;;;;;;;2.53;1.13;;;;;;;20.33;64.25;96325.00;10518661;28;20049;-28
2023/07/29 20:33:09;;;;;;;2.85;1.20;;;;;;;20.30;64.14;96306.41;10531327;28;20046;-32
2023/07/29 20:38:12;;;;;;;3.97;1.70;;;;;;;20.45;68.56;96318.03;10529673;28;20042;-29
2023/07/29 20:43:12;;;;;;;2.55;2.00;;;;;;;20.54;69.17;96317.91;10537507;28;20461;-29
2023/07/29 20:48:13;;;;;;;4.10;1.40;;;;;;;20.52;65.43;96327.28;10520481;28;20486;-29
2023/07/29 20:53:13;;;;;;;2.97;1.20;;;;;;;20.43;64.98;96319.78;10525767;28;20049;-29
2023/07/29 20:58:13;;;;;;;1.83;1.20;;;;;;;20.39;64.50;96351.16;10521161;28;20122;-29
2023/07/29 21:03:14;;;;;;;2.03;1.20;;;;;;;20.35;64.50;96356.31;10529629;28;20032;-29
2023/07/29 21:08:14;;;;;;;4.33;2.30;;;;;;;20.33;64.37;96352.97;10527532;28;20044;-29
2023/07/29 21:13:15;;;;;;;1.55;1.05;;;;;;;20.33;64.03;96352.13;10534433;28;20289;-29
2023/07/29 21:18:15;;;;;;;2.37;1.03;;;;;;;20.37;65.10;96356.31;10532877;28;20549;-28
2023/07/29 21:23:16;;;;;;;7.13;1.33;;;;;;;20.52;68.88;96346.75;10522208;28;20042;-29
2023/07/29 21:28:18;;;;;;;2.70;1.70;;;;;;;20.55;66.28;96344.19;10528774;28;20040;-29
2023/07/29 21:33:19;;;;;;;2.10;1.08;;;;;;;20.45;65.24;96343.47;10523825;28;20056;-29
2023/07/29 21:38:19;;;;;;;1.97;1.00;;;;;;;20.38;64.21;96355.44;10528836;28;20137;-30
2023/07/29 21:43:19;;;;;;;3.65;1.38;;;;;;;20.34;63.89;96351.28;10524094;28;20426;-29
2023/07/29 21:48:20;;;;;;;1.67;0.90;;;;;;;20.33;63.86;96347.06;10521340;28;20035;-29
2023/07/29 21:53:20;;;;;;;1.47;1.10;;;;;;;20.31;63.86;96348.75;10533420;28;20103;-29
2023/07/29 21:58:22;;;;;;;2.10;1.05;;;;;;;20.29;63.49;96355.56;10527836;28;20024;-29
2023/07/29 22:03:23;;;;;;;3.45;1.77;;;;;;;20.46;68.56;96354.50;10520198;28;20086;-29
2023/07/29 22:08:23;;;;;;;3.00;2.03;;;;;;;20.53;68.70;96356.91;10533529;28;20387;-30
2023/07/29 22:13:23;;;;;;;2.53;1.07;;;;;;;20.49;65.69;96362.94;10527567;28;20482;-29
2023/07/29 22:18:24;;;;;;;2.13;1.10;;;;;;;20.39;64.55;96356.25;10525934;28;20024;-29
2023/07/29 22:23:24;;;;;;;2.40;1.10;;;;;;;20.36;64.28;96349.53;10517368;28;20036;-29
2023/07/29 22:28:26;;;;;;;4.18;1.00;;;;;;;20.27;64.02;96357.28;10521815;28;20036;-29
2023/07/29 22:33:26;;;;;;;1.90;1.08;;;;;;;20.31;64.14;96364.84;10528463;28;20024;-29
2023/07/29 22:38:27;;;;;;;1.30;1.20;;;;;;;20.31;64.02;96382.66;10530791;28;20032;-29
2023/07/29 22:43:27;;;;;;;2.47;1.80;;;;;;;20.35;65.76;96388.53;10521089;28;20040;-28
2023/07/29 22:48:28;;;;;;;2.10;1.73;;;;;;;20.52;68.92;96385.75;10526264;28;20404;-29
2023/07/29 22:53:29;;;;;;;2.10;1.58;;;;;;;20.56;66.75;96367.03;10521011;28;20358;-29
2023/07/29 22:58:29;;;;;;;1.83;1.00;;;;;;;20.51;65.25;96368.81;10524977;28;20082;-29
2023/07/29 23:03:29;;;;;;;2.80;2.60;;;;;;;20.43;65.45;96365.53;10522089;28;20036;-29
2023/07/29 23:08:30;;;;;;;12.53;1.70;;;;;;;20.44;66.61;96372.31;10523967;28;20383;-30
2023/07/29 23:13:30;;;;;;;3.60;1.47;;;;;;;20.43;66.29;96364.69;10527312;28;20031;-29
2023/07/29 23:18:31;;;;;;;2.15;1.40;;;;;;;20.42;65.05;96377.44;10540047;28;20055;-29